Delta Billie — WDE8059 — position and weather

sailwx.info

Track history (hours):
 
Tides and Currents Weather Stations Pressure Air Temp Water Temp Dewpoint Dewpoint Depression Visibility Wind Speed Wind Dir Waves Ship Positions

Delta Billie

Owner: Baydelta Maritime, San Francicso, CA. More information available from US FCC via Universal Licensing System and Coast Guard Vessel Documentation Center.

Last reported at 2015-May-22 11:21 UTC. Time now 2015-May-22 11:37 UTC.
Position N 38°02' W 122°08'.

Length 30 m; draft 5.5 m.

Type: Towing. MMSI: 367401030.

Date/timePositionNaut miles runAvg speedWind from/ knotsBaromVisibWave heightAir tempDewpointWater temp
2015-May-22 11:21N 38°02' W 122°08'5 4.3
2015-May-22 10:12N 38°04' W 122°13'710.1
2015-May-22 09:29N 38°02' W 122°22'9 9.9
2015-May-22 08:33N 37°53' W 122°26'6 6.1
2015-May-22 07:31N 37°48' W 122°30'1 0.7
2015-May-22 06:14N 37°49' W 122°30'5 7.4
2015-May-22 05:34N 37°52' W 122°25'9 8.7
2015-May-22 04:33N 38°01' W 122°24'9 9.0
2015-May-22 03:32N 38°04' W 122°13'4 0.1
2015-May-20 10:29N 38°02' W 122°08'9 0.7
2015-May-19 22:25N 38°03' W 122°19'910.0
2015-May-19 21:33N 37°56' W 122°26'3 2.8
2015-May-19 20:33N 37°55' W 122°22'0 0.3
2015-May-19 19:33N 37°55' W 122°22'0 0.0
2015-May-19 18:33N 37°55' W 122°22'0 0.4
2015-May-19 17:34N 37°55' W 122°22'4 4.4
2015-May-19 16:34N 37°50' W 122°22'4 3.5
2015-May-19 15:33N 37°48' W 122°19'1 0.7
2015-May-19 14:33N 37°48' W 122°18'4 3.9
2015-May-19 13:33N 37°48' W 122°23'1 1.0
2015-May-19 12:32N 37°48' W 122°24'0 0.0
2015-May-19 11:33N 37°48' W 122°24'0 0.0
2015-May-19 10:33N 37°48' W 122°24'0 0.0
2015-May-19 09:33N 37°48' W 122°24'0 0.0
2015-May-19 08:34N 37°48' W 122°24'0 0.0
2015-May-19 07:34N 37°48' W 122°24'0 0.0
2015-May-19 06:33N 37°48' W 122°24'0 0.0
2015-May-19 05:33N 37°48' W 122°24'0 0.0
2015-May-19 04:32N 37°48' W 122°24'0 0.0
2015-May-19 03:30N 37°48' W 122°24'0 0.0
2015-May-19 02:33N 37°48' W 122°24'0 0.0
2015-May-19 01:33N 37°48' W 122°24'0 0.0
2015-May-19 00:33N 37°48' W 122°24'0 0.0
2015-May-18 23:33N 37°48' W 122°24'6 5.3
2015-May-18 22:28N 37°49' W 122°31'6 6.0
2015-May-18 21:33N 37°52' W 122°25'9 8.6
2015-May-18 20:33N 38°01' W 122°24'7 6.7
2015-May-18 19:26N 38°03' W 122°16'0 0.0
2015-May-18 18:32N 38°03' W 122°16'6 3.0
2015-May-18 16:24N 38°02' W 122°08'4 1.2
2015-May-18 12:33N 38°04' W 122°13'8 7.7
2015-May-18 11:30N 38°01' W 122°23'7 7.5
2015-May-18 10:33N 37°54' W 122°25'6 6.4
2015-May-18 09:33N 37°49' W 122°30'7 6.6
2015-May-18 08:32N 37°55' W 122°27'9 8.5
2015-May-18 07:28N 38°03' W 122°21'5 4.5
2015-May-18 06:24N 38°04' W 122°15'4 3.7
2015-May-18 05:12N 38°02' W 122°09'5 0.3
2015-May-17 08:33N 38°03' W 122°16'1 1.2
2015-May-17 07:28N 38°04' W 122°14'1 0.5
2015-May-17 05:11N 38°04' W 122°13'2 0.2
2015-May-16 22:13N 38°04' W 122°15'0 0.2
2015-May-16 21:33N 38°04' W 122°15'0 0.1
2015-May-16 20:11N 38°03' W 122°15'0 0.0
2015-May-16 19:29N 38°03' W 122°15'1 0.7
2015-May-16 18:13N 38°03' W 122°16'6 2.1
2015-May-16 15:11N 38°01' W 122°23'6 8.8
2015-May-16 14:33N 37°56' W 122°25'2 1.7
2015-May-16 13:30N 37°54' W 122°25'6 6.2
2015-May-16 12:32N 37°48' W 122°24'0 0.0
2015-May-16 11:33N 37°48' W 122°24'0 0.0
2015-May-16 10:33N 37°48' W 122°24'0 0.0
2015-May-16 09:33N 37°48' W 122°24'0 0.0
2015-May-16 08:33N 37°48' W 122°24'0 0.0
2015-May-16 07:30N 37°48' W 122°24'0 0.0
2015-May-16 06:33N 37°48' W 122°24'0 0.0
2015-May-16 05:32N 37°48' W 122°24'0 0.0
2015-May-16 04:33N 37°48' W 122°24'0 0.0
2015-May-16 03:33N 37°48' W 122°24'0 0.0
2015-May-16 02:33N 37°48' W 122°24'0 0.2
2015-May-16 01:33N 37°48' W 122°24'0 0.2
2015-May-16 00:33N 37°48' W 122°24'5 5.3
2015-May-15 23:32N 37°49' W 122°31'0 0.3
2015-May-15 22:30N 37°49' W 122°30'5 5.4
2015-May-15 21:33N 37°52' W 122°25'9 4.5
2015-May-15 19:33N 38°01' W 122°24'5 4.7
2015-May-15 18:32N 38°03' W 122°19'4 3.9
2015-May-15 17:30N 38°04' W 122°14'2 0.2
2015-May-15 04:21N 38°03' W 122°11'11 8.7
2015-May-15 03:06N 38°00' W 122°24'5 6.2
2015-May-15 02:19N 37°56' W 122°25'0 0.0
2015-May-15 01:32N 37°56' W 122°25'8 8.5
2015-May-15 00:33N 37°48' W 122°20'2 2.1
2015-May-14 23:33N 37°48' W 122°18'1 0.8
2015-May-14 22:33N 37°48' W 122°19'0 0.0
2015-May-14 21:33N 37°48' W 122°19'1 1.3
2015-May-14 20:33N 37°49' W 122°20'0 0.0
2015-May-14 19:33N 37°49' W 122°20'2 2.2
2015-May-14 18:33N 37°46' W 122°19'1 1.0
2015-May-14 17:33N 37°46' W 122°18'0 0.0
2015-May-14 16:33N 37°46' W 122°18'3 2.6
2015-May-14 15:33N 37°47' W 122°21'5 4.9
2015-May-14 14:32N 37°51' W 122°25'3 2.7
2015-May-14 13:33N 37°48' W 122°24'0 0.0
2015-May-14 12:33N 37°48' W 122°24'0 0.0
2015-May-14 11:28N 37°48' W 122°24'0 0.0
2015-May-14 10:33N 37°48' W 122°24'0 0.0
2015-May-14 09:33N 37°48' W 122°24'0 0.0
2015-May-14 08:33N 37°48' W 122°24'0 0.0
2015-May-14 07:33N 37°48' W 122°24'2 2.3
2015-May-14 06:33N 37°50' W 122°24'1110.5
2015-May-14 05:33N 38°01' W 122°23'12 5.0
2015-May-14 03:07N 38°02' W 122°08'4 0.5
2015-May-13 17:32N 38°04' W 122°13'2 2.2
2015-May-13 16:33N 38°03' W 122°16'4 3.3
2015-May-13 15:26N 38°03' W 122°11'0 0.0
2015-May-13 05:27N 38°03' W 122°11'1110.9
2015-May-13 04:25N 38°00' W 122°25'910.4
2015-May-13 03:33N 37°51' W 122°23'4 3.8
2015-May-13 02:33N 37°49' W 122°19'4 3.5
2015-May-13 01:31N 37°48' W 122°24'0 0.0
2015-May-13 00:32N 37°48' W 122°24'0 0.0
2015-May-12 23:33N 37°48' W 122°24'0 0.0
2015-May-12 22:31N 37°48' W 122°24'6 5.6
2015-May-12 21:29N 37°49' W 122°31'0 0.3
2015-May-12 20:14N 37°49' W 122°31'4 5.4
2015-May-12 19:28N 37°50' W 122°25'5 5.6
2015-May-12 18:30N 37°56' W 122°27'6 6.1
2015-May-12 17:33N 38°01' W 122°23'4 4.2
2015-May-12 16:32N 38°03' W 122°19'4 2.9
2015-May-12 15:09N 38°04' W 122°14'2 2.6
2015-May-12 14:20N 38°03' W 122°11'2 2.6
2015-May-12 13:33N 38°02' W 122°09'  
Track history (hours):
 
Tides and Currents Weather Stations Pressure Air Temp Water Temp Dewpoint Dewpoint Depression Visibility Wind Speed Wind Dir Waves Ship Positions

Delta Billie

Owner: Baydelta Maritime, San Francicso, CA. More information available from US FCC via Universal Licensing System and Coast Guard Vessel Documentation Center.

Last reported at 2015-May-22 11:21 UTC. Time now 2015-May-22 11:37 UTC.
Position N 38°02' W 122°08'.

Length 30 m; draft 5.5 m.

Type: Towing. MMSI: 367401030.

Date/timePositionNaut miles runAvg speedWind from/ knotsBaromVisibWave heightAir tempDewpointWater temp
2015-May-22 11:21N 38°02' W 122°08'5 4.3
2015-May-22 10:12N 38°04' W 122°13'710.1
2015-May-22 09:29N 38°02' W 122°22'9 9.9
2015-May-22 08:33N 37°53' W 122°26'6 6.1
2015-May-22 07:31N 37°48' W 122°30'1 0.7
2015-May-22 06:14N 37°49' W 122°30'5 7.4
2015-May-22 05:34N 37°52' W 122°25'9 8.7
2015-May-22 04:33N 38°01' W 122°24'9 9.0
2015-May-22 03:32N 38°04' W 122°13'4 0.1
2015-May-20 10:29N 38°02' W 122°08'9 0.7
2015-May-19 22:25N 38°03' W 122°19'910.0
2015-May-19 21:33N 37°56' W 122°26'3 2.8
2015-May-19 20:33N 37°55' W 122°22'0 0.3
2015-May-19 19:33N 37°55' W 122°22'0 0.0
2015-May-19 18:33N 37°55' W 122°22'0 0.4
2015-May-19 17:34N 37°55' W 122°22'4 4.4
2015-May-19 16:34N 37°50' W 122°22'4 3.5
2015-May-19 15:33N 37°48' W 122°19'1 0.7
2015-May-19 14:33N 37°48' W 122°18'4 3.9
2015-May-19 13:33N 37°48' W 122°23'1 1.0
2015-May-19 12:32N 37°48' W 122°24'0 0.0
2015-May-19 11:33N 37°48' W 122°24'0 0.0
2015-May-19 10:33N 37°48' W 122°24'0 0.0
2015-May-19 09:33N 37°48' W 122°24'0 0.0
2015-May-19 08:34N 37°48' W 122°24'0 0.0
2015-May-19 07:34N 37°48' W 122°24'0 0.0
2015-May-19 06:33N 37°48' W 122°24'0 0.0
2015-May-19 05:33N 37°48' W 122°24'0 0.0
2015-May-19 04:32N 37°48' W 122°24'0 0.0
2015-May-19 03:30N 37°48' W 122°24'0 0.0
2015-May-19 02:33N 37°48' W 122°24'0 0.0
2015-May-19 01:33N 37°48' W 122°24'0 0.0
2015-May-19 00:33N 37°48' W 122°24'0 0.0
2015-May-18 23:33N 37°48' W 122°24'6 5.3
2015-May-18 22:28N 37°49' W 122°31'6 6.0
2015-May-18 21:33N 37°52' W 122°25'9 8.6
2015-May-18 20:33N 38°01' W 122°24'7 6.7
2015-May-18 19:26N 38°03' W 122°16'0 0.0
2015-May-18 18:32N 38°03' W 122°16'6 3.0
2015-May-18 16:24N 38°02' W 122°08'4 1.2
2015-May-18 12:33N 38°04' W 122°13'8 7.7
2015-May-18 11:30N 38°01' W 122°23'7 7.5
2015-May-18 10:33N 37°54' W 122°25'6 6.4
2015-May-18 09:33N 37°49' W 122°30'7 6.6
2015-May-18 08:32N 37°55' W 122°27'9 8.5
2015-May-18 07:28N 38°03' W 122°21'5 4.5
2015-May-18 06:24N 38°04' W 122°15'4 3.7
2015-May-18 05:12N 38°02' W 122°09'5 0.3
2015-May-17 08:33N 38°03' W 122°16'1 1.2
2015-May-17 07:28N 38°04' W 122°14'1 0.5
2015-May-17 05:11N 38°04' W 122°13'2 0.2
2015-May-16 22:13N 38°04' W 122°15'0 0.2
2015-May-16 21:33N 38°04' W 122°15'0 0.1
2015-May-16 20:11N 38°03' W 122°15'0 0.0
2015-May-16 19:29N 38°03' W 122°15'1 0.7
2015-May-16 18:13N 38°03' W 122°16'6 2.1
2015-May-16 15:11N 38°01' W 122°23'6 8.8
2015-May-16 14:33N 37°56' W 122°25'2 1.7
2015-May-16 13:30N 37°54' W 122°25'6 6.2
2015-May-16 12:32N 37°48' W 122°24'0 0.0
2015-May-16 11:33N 37°48' W 122°24'0 0.0
2015-May-16 10:33N 37°48' W 122°24'0 0.0
2015-May-16 09:33N 37°48' W 122°24'0 0.0
2015-May-16 08:33N 37°48' W 122°24'0 0.0
2015-May-16 07:30N 37°48' W 122°24'0 0.0
2015-May-16 06:33N 37°48' W 122°24'0 0.0
2015-May-16 05:32N 37°48' W 122°24'0 0.0
2015-May-16 04:33N 37°48' W 122°24'0 0.0
2015-May-16 03:33N 37°48' W 122°24'0 0.0
2015-May-16 02:33N 37°48' W 122°24'0 0.2
2015-May-16 01:33N 37°48' W 122°24'0 0.2
2015-May-16 00:33N 37°48' W 122°24'5 5.3
2015-May-15 23:32N 37°49' W 122°31'0 0.3
2015-May-15 22:30N 37°49' W 122°30'5 5.4
2015-May-15 21:33N 37°52' W 122°25'9 4.5
2015-May-15 19:33N 38°01' W 122°24'5 4.7
2015-May-15 18:32N 38°03' W 122°19'4 3.9
2015-May-15 17:30N 38°04' W 122°14'2 0.2
2015-May-15 04:21N 38°03' W 122°11'11 8.7
2015-May-15 03:06N 38°00' W 122°24'5 6.2
2015-May-15 02:19N 37°56' W 122°25'0 0.0
2015-May-15 01:32N 37°56' W 122°25'8 8.5
2015-May-15 00:33N 37°48' W 122°20'2 2.1
2015-May-14 23:33N 37°48' W 122°18'1 0.8
2015-May-14 22:33N 37°48' W 122°19'0 0.0
2015-May-14 21:33N 37°48' W 122°19'1 1.3
2015-May-14 20:33N 37°49' W 122°20'0 0.0
2015-May-14 19:33N 37°49' W 122°20'2 2.2
2015-May-14 18:33N 37°46' W 122°19'1 1.0
2015-May-14 17:33N 37°46' W 122°18'0 0.0
2015-May-14 16:33N 37°46' W 122°18'3 2.6
2015-May-14 15:33N 37°47' W 122°21'5 4.9
2015-May-14 14:32N 37°51' W 122°25'3 2.7
2015-May-14 13:33N 37°48' W 122°24'0 0.0
2015-May-14 12:33N 37°48' W 122°24'0 0.0
2015-May-14 11:28N 37°48' W 122°24'0 0.0
2015-May-14 10:33N 37°48' W 122°24'0 0.0
2015-May-14 09:33N 37°48' W 122°24'0 0.0
2015-May-14 08:33N 37°48' W 122°24'0 0.0
2015-May-14 07:33N 37°48' W 122°24'2 2.3
2015-May-14 06:33N 37°50' W 122°24'1110.5
2015-May-14 05:33N 38°01' W 122°23'12 5.0
2015-May-14 03:07N 38°02' W 122°08'4 0.5
2015-May-13 17:32N 38°04' W 122°13'2 2.2
2015-May-13 16:33N 38°03' W 122°16'4 3.3
2015-May-13 15:26N 38°03' W 122°11'0 0.0
2015-May-13 05:27N 38°03' W 122°11'1110.9
2015-May-13 04:25N 38°00' W 122°25'910.4
2015-May-13 03:33N 37°51' W 122°23'4 3.8
2015-May-13 02:33N 37°49' W 122°19'4 3.5
2015-May-13 01:31N 37°48' W 122°24'0 0.0
2015-May-13 00:32N 37°48' W 122°24'0 0.0
2015-May-12 23:33N 37°48' W 122°24'0 0.0
2015-May-12 22:31N 37°48' W 122°24'6 5.6
2015-May-12 21:29N 37°49' W 122°31'0 0.3
2015-May-12 20:14N 37°49' W 122°31'4 5.4
2015-May-12 19:28N 37°50' W 122°25'5 5.6
2015-May-12 18:30N 37°56' W 122°27'6 6.1
2015-May-12 17:33N 38°01' W 122°23'4 4.2
2015-May-12 16:32N 38°03' W 122°19'4 2.9
2015-May-12 15:09N 38°04' W 122°14'2 2.6
2015-May-12 14:20N 38°03' W 122°11'2 2.6
2015-May-12 13:33N 38°02' W 122°09'  

Dump ship's entire track history